📊 Raw Sensor Data
Showing records 52076 to 52100 of 85,264 total
| ID | Distance (ft) | Battery V | Battery A | Int Temp (°F) | Int Humid (%) | Ext Temp (°F) | Solar V | RSSI | SNR | Time Stamp |
|---|---|---|---|---|---|---|---|---|---|---|
| 33201 | 14.5 | 3.83 | 0 | 64 | 36 | 63 | 5.10 | -69 | 8 | 02/23/2025 10:45 AM |
| 33200 | 14.4 | 4.08 | 132 | 61 | 37 | 60 | 4.50 | -69 | 8 | 02/23/2025 10:30 AM |
| 33199 | 14.4 | 3.95 | 49 | 61 | 37 | 60 | 4.50 | -69 | 8 | 02/23/2025 10:15 AM |
| 33198 | 14.4 | 3.97 | 85 | 60 | 36 | 60 | 4.50 | -69 | 7 | 02/23/2025 10:00 AM |
| 33197 | 14.4 | 3.95 | 77 | 60 | 36 | 59 | 4.50 | -69 | 8 | 02/23/2025 09:45 AM |
| 33196 | 14.4 | 4.01 | 77 | 58 | 36 | 58 | 4.50 | -69 | 8 | 02/23/2025 09:30 AM |
| 33195 | 14.4 | 3.93 | 81 | 57 | 36 | 57 | 4.50 | -70 | 8 | 02/23/2025 09:15 AM |
| 33194 | 14.4 | 3.87 | 25 | 56 | 36 | 56 | 4.50 | -70 | 9 | 02/23/2025 09:00 AM |
| 33193 | 14.4 | 3.86 | 32 | 55 | 36 | 55 | 4.50 | -70 | 8 | 02/23/2025 08:45 AM |
| 33192 | 14.4 | 3.84 | 26 | 54 | 37 | 54 | 4.50 | -70 | 8 | 02/23/2025 08:30 AM |
| 33191 | 14.4 | 3.81 | 16 | 53 | 37 | 53 | 4.50 | -69 | 8 | 02/23/2025 08:15 AM |
| 33190 | 14.4 | 3.80 | 20 | 52 | 37 | 52 | 4.50 | -69 | 8 | 02/23/2025 08:00 AM |
| 33189 | 14.4 | 3.82 | 9 | 51 | 37 | 52 | 4.50 | -70 | 8 | 02/23/2025 07:45 AM |
| 33188 | 14.4 | 3.82 | 5 | 51 | 37 | 51 | 4.50 | -70 | 8 | 02/23/2025 07:30 AM |
| 33187 | 14.4 | 3.75 | -8 | 50 | 37 | 51 | 4.50 | -70 | 8 | 02/23/2025 07:00 AM |
| 33186 | 14.4 | 3.75 | -6 | 50 | 38 | 51 | 1.50 | -70 | 8 | 02/23/2025 06:46 AM |
| 33185 | 14.4 | 3.80 | -5 | 49 | 37 | 51 | 0.60 | -70 | 8 | 02/23/2025 06:30 AM |
| 33184 | 14.4 | 3.76 | -5 | 49 | 37 | 50 | 0.00 | -70 | 8 | 02/23/2025 06:15 AM |
| 33183 | 14.3 | 3.80 | -5 | 48 | 38 | 50 | 0.10 | -70 | 8 | 02/23/2025 06:00 AM |
| 33182 | 14.3 | 3.80 | -5 | 47 | 38 | 49 | 0.00 | -69 | 8 | 02/23/2025 05:45 AM |
| 33181 | 14.3 | 3.76 | -5 | 46 | 38 | 48 | 0.00 | -69 | 8 | 02/23/2025 05:30 AM |
| 33180 | 14.3 | 3.80 | -5 | 46 | 38 | 48 | 0.00 | -70 | 8 | 02/23/2025 05:15 AM |
| 33179 | 14.3 | 3.76 | -5 | 46 | 38 | 48 | 0.00 | -70 | 8 | 02/23/2025 05:00 AM |
| 33178 | 14.3 | 3.76 | -5 | 47 | 38 | 48 | 0.10 | -70 | 9 | 02/23/2025 04:45 AM |
| 33177 | 14.3 | 3.81 | -5 | 47 | 38 | 48 | 0.00 | -69 | 8 | 02/23/2025 04:30 AM |